Time;durP1;ratioP1;P1;durP2;ratioP2;P2;SDS_P1;SDS_P2;PMS_P1;PMS_P2;Temp;Humidity;BMP_temperature;BMP_pressure;BME280_temperature;BME280_humidity;BME280_pressure;Samples;Min_cycle;Max_cycle;Signal;HPM_P1;HPM_P2
2023/03/27 00:02:19;;;;;;;9.90;2.72;;;1.80;99.90;;;;;;5073717;28;20070;-35
2023/03/27 00:04:45;;;;;;;4.63;1.55;;;1.70;99.90;;;;;;5075522;28;20041;-35
2023/03/27 00:07:11;;;;;;;4.95;2.10;;;1.70;99.90;;;;;;5057137;28;20052;-35
2023/03/27 00:09:38;;;;;;;8.57;1.92;;;1.70;99.90;;;;;;5054854;28;20048;-35
2023/03/27 00:12:04;;;;;;;5.35;1.70;;;1.60;99.90;;;;;;5062641;28;20534;-35
2023/03/27 00:14:30;;;;;;;7.85;1.85;;;1.60;99.90;;;;;;5057602;28;20037;-35
2023/03/27 00:16:58;;;;;;;8.27;1.65;;;1.70;99.90;;;;;;5067809;28;20047;-35
2023/03/27 00:19:25;;;;;;;6.35;2.20;;;1.60;99.90;;;;;;5061923;28;20037;-34
2023/03/27 00:21:52;;;;;;;7.03;3.63;;;1.50;99.90;;;;;;5068707;28;20086;-34
2023/03/27 00:24:18;;;;;;;6.68;2.10;;;1.60;99.90;;;;;;5066704;28;20114;-35
2023/03/27 00:26:43;;;;;;;5.05;1.77;;;1.50;99.90;;;;;;5062425;28;20616;-35
2023/03/27 00:29:11;;;;;;;5.55;2.00;;;1.50;99.90;;;;;;5077341;28;20401;-35
2023/03/27 00:31:37;;;;;;;6.18;1.98;;;1.50;99.90;;;;;;5065447;28;20558;-35
2023/03/27 00:34:03;;;;;;;7.47;2.20;;;1.50;99.90;;;;;;5062847;28;20171;-34
2023/03/27 00:36:30;;;;;;;4.57;1.48;;;1.50;99.90;;;;;;5063822;28;20024;-35
2023/03/27 00:39:03;;;;;;;6.07;2.45;;;1.50;99.90;;;;;;5063242;28;20295;-35
2023/03/27 00:41:29;;;;;;;7.97;2.50;;;1.50;99.90;;;;;;5063331;28;20033;-36
2023/03/27 00:43:57;;;;;;;4.93;1.88;;;1.50;99.90;;;;;;5076053;28;20037;-36
2023/03/27 00:46:43;;;;;;;8.93;1.98;;;1.50;99.90;;;;;;5074231;28;20036;-37
2023/03/27 00:49:12;;;;;;;5.13;1.98;;;1.60;99.90;;;;;;5074828;28;20115;-36
2023/03/27 00:51:41;;;;;;;8.50;2.55;;;1.60;99.90;;;;;;5080093;28;20032;-37
2023/03/27 00:54:08;;;;;;;4.93;1.95;;;1.60;99.90;;;;;;5079466;28;20035;-37
2023/03/27 00:56:37;;;;;;;7.47;1.75;;;1.60;99.90;;;;;;5078842;28;20028;-36
2023/03/27 00:59:12;;;;;;;8.70;2.47;;;1.70;99.90;;;;;;5079406;28;20044;-37
2023/03/27 01:01:39;;;;;;;4.75;1.92;;;1.70;99.90;;;;;;5085937;28;20032;-36
2023/03/27 01:04:06;;;;;;;8.45;1.70;;;1.70;99.90;;;;;;5078377;28;20043;-36
2023/03/27 01:06:32;;;;;;;8.88;2.17;;;1.70;99.90;;;;;;5057491;28;20146;-36
2023/03/27 01:09:01;;;;;;;11.90;2.17;;;1.70;99.90;;;;;;5052390;28;20569;-36
2023/03/27 01:11:44;;;;;;;4.80;1.77;;;1.70;99.90;;;;;;5053831;28;20043;-36
2023/03/27 01:14:29;;;;;;;8.73;1.92;;;1.70;99.90;;;;;;5054910;28;20036;-36
2023/03/27 01:17:13;;;;;;;;;;;1.70;99.90;;;;;;5061606;28;20091;-36
2023/03/27 01:20:03;;;;;;;6.65;2.25;;;1.70;99.90;;;;;;5056137;28;19979;-36
2023/03/27 01:22:47;;;;;;;8.65;2.67;;;1.60;99.90;;;;;;5060106;28;20542;-36
2023/03/27 01:25:57;;;;;;;7.45;2.03;;;1.60;99.90;;;;;;5056447;28;20075;-35
2023/03/27 01:28:26;;;;;;;8.57;2.40;;;1.50;99.90;;;;;;5063548;28;20036;-35
2023/03/27 01:31:01;;;;;;;6.80;2.10;;;1.40;99.90;;;;;;5068587;28;20041;-34
2023/03/27 01:34:01;;;;;;;5.78;1.92;;;1.40;99.90;;;;;;5068776;28;20115;-34
2023/03/27 01:36:55;;;;;;;9.93;2.28;;;1.40;99.90;;;;;;5068241;28;20040;-35
2023/03/27 01:39:39;;;;;;;4.50;1.92;;;1.40;99.90;;;;;;5065973;28;20036;-35
2023/03/27 01:42:14;;;;;;;4.90;2.00;;;1.30;99.90;;;;;;5070917;28;20446;-35
2023/03/27 01:44:59;;;;;;;11.13;1.83;;;1.30;99.90;;;;;;5066112;28;20033;-35
2023/03/27 01:47:49;;;;;;;4.53;1.80;;;1.30;99.90;;;;;;5068608;28;20040;-35
2023/03/27 01:51:09;;;;;;;7.75;1.83;;;1.20;99.90;;;;;;5059452;28;20075;-35
2023/03/27 01:54:11;;;;;;;3.75;1.40;;;1.20;99.90;;;;;;5019207;28;20051;-34
2023/03/27 01:56:41;;;;;;;7.68;1.70;;;1.20;99.90;;;;;;5016671;28;20041;-35
2023/03/27 01:59:11;;;;;;;8.48;1.60;;;1.20;99.90;;;;;;5065739;28;20098;-35
2023/03/27 02:01:41;;;;;;;3.50;1.40;;;1.20;99.90;;;;;;5056329;28;20041;-35
2023/03/27 02:04:12;;;;;;;4.47;1.88;;;1.20;99.90;;;;;;5061958;28;20036;-34
2023/03/27 02:06:43;;;;;;;8.35;2.40;;;1.20;99.90;;;;;;5061277;28;20490;-34
2023/03/27 02:09:28;;;;;;;6.28;1.40;;;1.20;99.90;;;;;;5065778;28;20036;-35
2023/03/27 02:12:29;;;;;;;6.20;1.52;;;1.20;99.90;;;;;;5059720;28;20573;-35
2023/03/27 02:15:02;;;;;;;4.55;1.48;;;1.20;99.90;;;;;;5066062;28;20029;-35
2023/03/27 02:17:32;;;;;;;7.20;1.63;;;1.20;99.90;;;;;;5062970;28;20579;-35
2023/03/27 02:20:14;;;;;;;5.97;1.83;;;1.20;99.90;;;;;;5068894;28;20065;-35
2023/03/27 02:22:41;;;;;;;7.47;2.00;;;1.20;99.90;;;;;;5058507;28;20040;-35
2023/03/27 02:25:26;;;;;;;6.53;1.45;;;1.20;99.90;;;;;;5065731;28;20028;-35
2023/03/27 02:28:28;;;;;;;5.25;2.03;;;1.20;99.90;;;;;;5062355;28;20044;-35
2023/03/27 02:31:05;;;;;;;5.90;1.85;;;1.20;99.90;;;;;;5066569;28;20044;-35
2023/03/27 02:33:59;;;;;;;4.57;1.52;;;1.10;99.90;;;;;;5063419;28;20098;-35
2023/03/27 02:36:40;;;;;;;7.28;1.70;;;1.20;99.90;;;;;;5066188;28;20040;-35
2023/03/27 02:39:25;;;;;;;6.50;1.60;;;1.10;99.90;;;;;;5066578;28;20068;-35
2023/03/27 02:42:03;;;;;;;8.75;2.00;;;1.10;99.90;;;;;;5069518;28;20047;-35
2023/03/27 02:44:38;;;;;;;6.93;1.30;;;1.10;99.90;;;;;;5064965;28;20037;-35
2023/03/27 02:47:06;;;;;;;7.43;1.70;;;1.10;99.90;;;;;;5068404;28;20462;-35
2023/03/27 02:50:18;;;;;;;4.97;1.42;;;1.10;99.90;;;;;;5069057;28;20033;-35
2023/03/27 02:52:50;;;;;;;7.72;2.00;;;1.10;99.90;;;;;;5066085;28;20118;-34
2023/03/27 02:55:25;;;;;;;7.65;2.05;;;1.10;99.90;;;;;;5065214;28;20036;-35
2023/03/27 02:57:58;;;;;;;4.72;1.73;;;1.10;99.90;;;;;;5074100;28;20118;-34
2023/03/27 03:00:28;;;;;;;4.03;1.45;;;1.20;99.90;;;;;;5070594;28;20036;-35
2023/03/27 03:03:04;;;;;;;5.28;1.60;;;1.20;99.90;;;;;;5075473;28;20140;-35
2023/03/27 03:05:31;;;;;;;6.57;1.55;;;1.30;99.90;;;;;;5071857;28;20122;-34
2023/03/27 03:07:57;;;;;;;7.07;1.60;;;1.30;99.90;;;;;;5078670;28;20063;-35
2023/03/27 03:10:25;;;;;;;9.85;1.85;;;1.40;99.90;;;;;;5078589;28;20042;-35
2023/03/27 03:12:50;;;;;;;5.50;1.42;;;1.30;99.90;;;;;;5075314;28;20419;-35
2023/03/27 03:15:17;;;;;;;8.77;1.85;;;1.40;99.90;;;;;;5078662;28;20036;-35
2023/03/27 03:17:43;;;;;;;3.65;1.75;;;1.40;99.90;;;;;;5070837;28;20036;-35
2023/03/27 03:20:11;;;;;;;7.57;2.08;;;1.50;99.90;;;;;;5078759;28;20457;-35
2023/03/27 03:22:38;;;;;;;9.60;1.60;;;1.50;99.90;;;;;;5073454;28;20033;-35
2023/03/27 03:25:09;;;;;;;5.13;1.48;;;1.50;99.90;;;;;;5078088;28;20060;-35
2023/03/27 03:27:36;;;;;;;6.50;1.50;;;1.50;99.90;;;;;;5074191;28;20033;-34
2023/03/27 03:30:03;;;;;;;4.60;2.22;;;1.50;99.90;;;;;;5081013;28;20071;-34
2023/03/27 03:32:29;;;;;;;3.47;1.33;;;1.50;99.90;;;;;;5074017;28;20064;-35
2023/03/27 03:34:55;;;;;;;7.40;1.77;;;1.40;99.90;;;;;;5076878;28;20551;-34
2023/03/27 03:37:27;;;;;;;4.82;1.40;;;1.40;99.90;;;;;;5082049;28;20032;-34
2023/03/27 03:39:54;;;;;;;7.40;1.70;;;1.30;99.90;;;;;;5069293;28;20094;-35
2023/03/27 03:42:20;;;;;;;5.72;1.42;;;1.30;99.90;;;;;;5084876;28;20440;-35
2023/03/27 03:44:46;;;;;;;6.63;1.80;;;1.30;99.90;;;;;;5068699;28;20111;-35
2023/03/27 03:47:12;;;;;;;5.70;1.65;;;1.20;99.90;;;;;;5074866;28;20115;-34
2023/03/27 03:49:37;;;;;;;7.25;1.80;;;1.20;99.90;;;;;;5062516;28;20048;-35
2023/03/27 03:52:03;;;;;;;9.07;1.63;;;1.30;99.90;;;;;;5053923;28;20053;-35
2023/03/27 03:54:29;;;;;;;8.10;2.00;;;1.30;99.90;;;;;;5059535;28;20525;-37
2023/03/27 03:56:54;;;;;;;5.72;1.50;;;1.30;99.90;;;;;;5067859;28;20045;-35
2023/03/27 03:59:20;;;;;;;3.47;1.30;;;1.40;99.90;;;;;;5061721;28;20102;-35
2023/03/27 04:01:46;;;;;;;7.40;1.42;;;1.30;99.90;;;;;;5057653;28;20092;-34
2023/03/27 04:04:12;;;;;;;4.78;1.40;;;1.30;99.90;;;;;;5060126;28;20111;-35
2023/03/27 04:06:38;;;;;;;4.47;1.40;;;1.30;99.90;;;;;;5059486;28;20115;-34
2023/03/27 04:09:04;;;;;;;5.85;1.52;;;1.30;99.90;;;;;;5058388;28;20409;-35
2023/03/27 04:11:30;;;;;;;5.75;1.65;;;1.30;99.90;;;;;;5064279;28;20040;-35
2023/03/27 04:13:56;;;;;;;3.55;1.30;;;1.40;99.90;;;;;;5067040;28;20107;-35
2023/03/27 04:16:21;;;;;;;10.10;1.98;;;1.40;99.90;;;;;;5057799;28;20083;-35
2023/03/27 04:18:49;;;;;;;3.45;1.27;;;1.50;99.90;;;;;;5059353;28;20051;-35
2023/03/27 04:21:16;;;;;;;4.60;1.50;;;1.40;99.90;;;;;;5057952;28;20091;-35
2023/03/27 04:23:44;;;;;;;3.60;1.33;;;1.50;99.90;;;;;;5061893;28;20074;-35
2023/03/27 04:26:14;;;;;;;3.85;1.35;;;1.40;99.90;;;;;;5062443;28;20085;-35
2023/03/27 04:28:40;;;;;;;5.85;1.63;;;1.60;99.90;;;;;;5054548;28;20364;-32
2023/03/27 04:31:09;;;;;;;3.95;1.33;;;1.40;99.90;;;;;;5057702;28;20048;-32
2023/03/27 04:33:39;;;;;;;5.65;1.83;;;1.40;99.90;;;;;;5064861;28;20051;-32
2023/03/27 04:36:06;;;;;;;5.15;1.70;;;1.30;99.90;;;;;;5065392;28;20456;-32
2023/03/27 04:38:35;;;;;;;4.38;1.50;;;1.30;99.90;;;;;;5069754;28;20044;-32
2023/03/27 04:41:02;;;;;;;3.85;1.30;;;1.40;99.90;;;;;;5064615;28;20631;-32
2023/03/27 04:43:28;;;;;;;5.32;1.70;;;1.30;99.90;;;;;;5060651;28;20033;-33
2023/03/27 04:45:54;;;;;;;5.70;2.45;;;1.30;99.90;;;;;;5064854;28;20085;-32
2023/03/27 04:48:22;;;;;;;4.63;1.60;;;1.30;99.90;;;;;;5063913;28;20103;-32
2023/03/27 04:50:48;;;;;;;3.17;1.90;;;1.30;99.90;;;;;;5059099;28;20410;-32
2023/03/27 04:53:22;;;;;;;5.47;1.60;;;1.30;99.90;;;;;;5070131;28;20032;-33
2023/03/27 04:55:51;;;;;;;4.57;1.60;;;1.20;99.90;;;;;;5069927;28;20033;-32
2023/03/27 04:58:17;;;;;;;5.50;1.95;;;1.20;99.90;;;;;;5071101;28;20043;-32
2023/03/27 05:00:49;;;;;;;3.95;1.58;;;1.30;99.90;;;;;;5075264;28;21378;-32
2023/03/27 05:03:18;;;;;;;7.55;1.58;;;1.30;99.90;;;;;;5063935;28;20524;-31
2023/03/27 05:05:48;;;;;;;6.35;1.90;;;1.40;99.90;;;;;;5057246;28;20044;-33
2023/03/27 05:08:14;;;;;;;7.20;1.60;;;1.40;99.90;;;;;;5054056;28;20451;-33
2023/03/27 05:10:41;;;;;;;4.85;1.70;;;1.30;99.90;;;;;;5075249;28;20071;-33
2023/03/27 05:13:07;;;;;;;9.15;2.10;;;1.40;99.90;;;;;;5073744;28;20405;-34
2023/03/27 05:15:33;;;;;;;2.97;1.63;;;1.40;99.90;;;;;;5061917;28;20075;-32
2023/03/27 05:17:59;;;;;;;4.28;2.00;;;1.40;99.90;;;;;;5078735;28;20037;-32
2023/03/27 05:20:26;;;;;;;8.35;1.77;;;1.40;99.90;;;;;;5076574;28;20040;-33
2023/03/27 05:22:55;;;;;;;6.90;2.63;;;1.40;99.90;;;;;;5067371;28;20560;-32
2023/03/27 05:25:22;;;;;;;4.43;1.50;;;1.40;99.90;;;;;;5045556;28;20499;-32
2023/03/27 05:27:49;;;;;;;3.72;1.73;;;1.50;99.90;;;;;;5063087;28;20035;-32
2023/03/27 05:30:17;;;;;;;3.22;1.63;;;1.40;99.90;;;;;;5068502;28;20040;-33
2023/03/27 05:32:47;;;;;;;5.25;1.90;;;1.40;99.90;;;;;;5038003;28;20123;-33
2023/03/27 05:35:18;;;;;;;8.52;2.35;;;1.30;99.90;;;;;;5079298;28;20463;-34
2023/03/27 05:37:48;;;;;;;7.50;1.92;;;1.20;99.90;;;;;;5078149;28;20040;-34
2023/03/27 05:40:16;;;;;;;7.63;1.90;;;1.20;99.90;;;;;;5061656;28;20063;-32
2023/03/27 05:42:45;;;;;;;5.00;2.05;;;1.10;99.90;;;;;;5064026;28;20099;-32
2023/03/27 05:45:12;;;;;;;6.13;1.75;;;1.10;99.90;;;;;;5050403;28;20041;-33
2023/03/27 05:47:47;;;;;;;4.97;1.73;;;1.10;99.90;;;;;;5058512;28;20431;-32
2023/03/27 05:50:14;;;;;;;8.00;2.10;;;1.10;99.90;;;;;;5054388;28;20566;-32
2023/03/27 05:52:41;;;;;;;4.93;1.90;;;1.00;99.90;;;;;;5066245;28;20097;-32
2023/03/27 05:55:07;;;;;;;6.05;2.17;;;1.10;99.90;;;;;;5059561;28;20047;-32
2023/03/27 05:57:37;;;;;;;9.25;2.05;;;1.10;99.90;;;;;;5059904;28;20086;-32
2023/03/27 06:00:14;;;;;;;7.50;1.98;;;1.10;99.90;;;;;;5068593;28;20363;-32
2023/03/27 06:02:44;;;;;;;10.93;2.28;;;1.10;99.90;;;;;;5035603;28;20037;-32
2023/03/27 06:05:15;;;;;;;7.25;2.28;;;1.30;99.90;;;;;;5060612;28;20428;-33
2023/03/27 06:07:42;;;;;;;5.55;2.22;;;1.30;99.90;;;;;;5052718;28;20029;-33
2023/03/27 06:10:10;;;;;;;5.10;1.95;;;1.40;99.90;;;;;;5056841;28;20028;-33
2023/03/27 06:12:36;;;;;;;6.30;1.73;;;1.40;99.90;;;;;;5063155;28;20509;-33
2023/03/27 06:15:07;;;;;;;6.15;2.83;;;1.50;99.90;;;;;;5063824;28;20049;-33
2023/03/27 06:17:33;;;;;;;5.32;1.88;;;1.50;99.90;;;;;;5054404;28;20044;-32
2023/03/27 06:19:59;;;;;;;10.93;2.65;;;1.60;99.90;;;;;;5059896;28;20036;-32
2023/03/27 06:22:26;;;;;;;6.63;2.42;;;1.70;99.90;;;;;;5060073;28;20100;-32
2023/03/27 06:24:52;;;;;;;8.52;2.20;;;1.70;99.90;;;;;;5057970;28;20039;-33
2023/03/27 06:27:19;;;;;;;10.18;2.03;;;1.80;99.90;;;;;;5062786;28;20550;-34
2023/03/27 06:29:46;;;;;;;9.63;2.20;;;1.90;99.90;;;;;;5062276;28;20037;-32
2023/03/27 06:32:13;;;;;;;3.60;2.03;;;1.90;99.90;;;;;;5065880;28;20064;-34
2023/03/27 06:34:38;;;;;;;7.10;1.90;;;2.10;99.90;;;;;;5069731;28;20504;-33
2023/03/27 06:37:04;;;;;;;9.32;2.28;;;2.20;99.90;;;;;;5075897;28;20040;-33
2023/03/27 06:39:30;;;;;;;7.53;1.65;;;2.40;99.90;;;;;;5066741;28;20040;-32
2023/03/27 06:41:56;;;;;;;6.10;1.73;;;2.50;99.90;;;;;;5066959;28;20040;-33
2023/03/27 06:44:22;;;;;;;7.55;1.75;;;2.60;99.90;;;;;;5067241;28;20033;-33
2023/03/27 06:46:47;;;;;;;4.40;1.45;;;2.60;99.90;;;;;;5065955;28;20048;-32
2023/03/27 06:49:14;;;;;;;5.82;1.27;;;2.60;99.90;;;;;;5072586;28;20420;-33
2023/03/27 06:51:40;;;;;;;4.55;1.80;;;2.60;99.90;;;;;;5072537;28;20548;-33
2023/03/27 06:54:06;;;;;;;4.47;1.13;;;2.60;99.90;;;;;;5050495;28;20052;-33
2023/03/27 06:56:32;;;;;;;1.88;0.80;;;2.70;99.90;;;;;;5070633;28;20032;-32
2023/03/27 06:58:57;;;;;;;2.47;1.05;;;2.70;99.90;;;;;;5073315;28;20041;-33
2023/03/27 07:01:23;;;;;;;5.20;1.20;;;2.90;99.90;;;;;;5068410;28;20078;-34
2023/03/27 07:03:49;;;;;;;6.00;1.65;;;2.90;99.90;;;;;;5071645;28;20075;-34
2023/03/27 07:06:15;;;;;;;3.67;1.27;;;3.00;99.90;;;;;;5064726;28;20036;-34
2023/03/27 07:08:41;;;;;;;3.08;1.20;;;3.10;99.90;;;;;;5069250;28;20032;-33
2023/03/27 07:11:07;;;;;;;5.68;1.38;;;3.10;99.90;;;;;;5067311;28;20037;-33
2023/03/27 07:13:33;;;;;;;5.32;1.55;;;3.10;99.90;;;;;;5060531;28;20037;-33
2023/03/27 07:15:58;;;;;;;7.97;1.50;;;3.10;99.90;;;;;;5060793;28;20108;-33
2023/03/27 07:18:24;;;;;;;4.15;1.40;;;3.10;99.90;;;;;;5060908;28;20127;-33
2023/03/27 07:20:50;;;;;;;2.40;1.02;;;3.10;99.90;;;;;;5065298;28;20449;-33
2023/03/27 07:23:15;;;;;;;4.43;1.42;;;3.10;99.90;;;;;;5068316;28;20074;-33
2023/03/27 07:25:41;;;;;;;3.03;1.30;;;3.10;99.90;;;;;;5062727;28;20032;-34
2023/03/27 07:28:11;;;;;;;2.63;1.17;;;3.10;99.90;;;;;;5063719;28;20123;-33
2023/03/27 07:30:37;;;;;;;4.82;1.20;;;3.20;99.90;;;;;;5068688;28;20398;-33
2023/03/27 07:33:06;;;;;;;1.73;1.30;;;3.30;99.90;;;;;;5067904;28;20041;-34
2023/03/27 07:35:32;;;;;;;8.57;1.10;;;3.80;99.90;;;;;;5066713;28;20029;-33
2023/03/27 07:37:58;;;;;;;5.47;1.40;;;3.40;99.90;;;;;;5068091;28;20485;-34
2023/03/27 07:40:25;;;;;;;7.18;1.40;;;3.60;99.90;;;;;;5067187;28;20043;-33
2023/03/27 07:42:52;;;;;;;5.82;1.52;;;3.70;99.90;;;;;;5061760;28;20067;-34
2023/03/27 07:45:20;;;;;;;5.97;1.73;;;3.80;99.90;;;;;;5060123;28;20033;-34
2023/03/27 07:47:46;;;;;;;5.15;1.60;;;4.00;99.90;;;;;;5065895;28;20529;-33
2023/03/27 07:50:14;;;;;;;4.78;1.25;;;4.10;99.90;;;;;;5066063;28;20044;-33
2023/03/27 07:52:43;;;;;;;3.13;1.17;;;4.30;99.90;;;;;;5063780;28;20040;-33
2023/03/27 07:55:15;;;;;;;3.20;1.40;;;4.40;99.90;;;;;;5073121;28;20043;-34
2023/03/27 07:57:45;;;;;;;5.38;1.42;;;4.60;99.90;;;;;;5072191;28;20080;-34
2023/03/27 08:00:12;;;;;;;3.55;1.30;;;4.80;99.90;;;;;;5066078;28;20067;-34
2023/03/27 08:02:40;;;;;;;5.88;1.40;;;5.00;99.90;;;;;;5067058;28;20040;-33
2023/03/27 08:05:07;;;;;;;3.13;1.40;;;5.30;99.90;;;;;;5065851;28;20040;-34
2023/03/27 08:07:38;;;;;;;5.53;1.65;;;5.40;99.90;;;;;;5069373;28;20033;-33
2023/03/27 08:10:05;;;;;;;6.32;1.70;;;5.60;99.90;;;;;;5067010;28;20478;-34
2023/03/27 08:12:32;;;;;;;6.60;1.60;;;5.80;99.90;;;;;;5070144;28;20032;-34
2023/03/27 08:14:58;;;;;;;8.45;1.88;;;6.00;99.90;;;;;;5063413;28;20130;-34
2023/03/27 08:17:28;;;;;;;3.78;1.63;;;6.30;99.90;;;;;;5072199;28;20595;-33
2023/03/27 08:19:54;;;;;;;8.57;1.88;;;6.50;99.90;;;;;;5056490;28;20059;-33
2023/03/27 08:22:24;;;;;;;4.22;1.58;;;6.50;99.90;;;;;;5059535;28;20430;-34
2023/03/27 08:24:49;;;;;;;6.00;1.50;;;6.70;99.90;;;;;;5056076;28;20505;-33
2023/03/27 08:27:16;;;;;;;9.40;1.67;;;6.80;99.90;;;;;;5056940;28;20033;-34
2023/03/27 08:29:42;;;;;;;7.95;1.42;;;6.60;99.90;;;;;;5052122;28;20108;-33
2023/03/27 08:32:09;;;;;;;3.72;0.98;;;6.40;99.90;;;;;;5062558;28;20040;-33
2023/03/27 08:34:36;;;;;;;6.05;1.00;;;6.00;99.90;;;;;;5070198;28;20033;-34
2023/03/27 08:37:03;;;;;;;1.77;0.80;;;5.60;99.90;;;;;;5068216;28;20509;-32
2023/03/27 08:39:29;;;;;;;1.42;0.50;;;5.00;99.90;;;;;;5071544;28;20068;-35
2023/03/27 08:41:58;;;;;;;4.15;1.00;;;4.70;99.90;;;;;;5066885;28;20465;-33
2023/03/27 08:44:25;;;;;;;3.08;0.90;;;4.50;99.90;;;;;;5061636;28;20036;-33
2023/03/27 08:47:20;;;;;;;2.83;1.00;;;4.30;99.90;;;;;;5061440;28;20036;-34
2023/03/27 08:49:51;;;;;;;2.20;0.95;;;4.20;99.90;;;;;;5062652;28;20095;-33
2023/03/27 08:52:21;;;;;;;6.18;1.38;;;4.30;99.90;;;;;;5056687;28;20120;-33
2023/03/27 08:54:57;;;;;;;3.22;0.93;;;4.50;99.90;;;;;;5063095;28;20072;-33
2023/03/27 08:57:27;;;;;;;3.15;0.82;;;5.00;99.90;;;;;;5055449;28;20112;-34
2023/03/27 08:59:57;;;;;;;4.07;1.20;;;5.70;99.90;;;;;;5056535;28;20086;-34
2023/03/27 09:02:43;;;;;;;3.42;1.33;;;6.30;99.90;;;;;;5054257;28;20033;-34
2023/03/27 09:05:20;;;;;;;4.75;1.00;;;6.90;99.90;;;;;;5066633;28;20033;-32
2023/03/27 09:08:09;;;;;;;6.97;1.58;;;7.40;99.90;;;;;;5056831;28;20058;-33
2023/03/27 09:10:42;;;;;;;4.95;1.60;;;7.50;99.90;;;;;;5055016;28;20088;-34
2023/03/27 09:13:21;;;;;;;;;;;7.80;99.90;;;;;;5073631;28;20054;-34
2023/03/27 09:15:58;;;;;;;5.38;1.27;;;8.30;99.90;;;;;;5060402;28;19988;-34
2023/03/27 09:18:45;;;;;;;4.47;1.10;;;8.80;99.90;;;;;;5065539;28;20032;-34
2023/03/27 09:21:20;;;;;;;3.55;1.40;;;9.30;99.90;;;;;;5067946;28;20036;-35
2023/03/27 09:23:47;;;;;;;4.22;1.30;;;9.50;99.90;;;;;;5060634;28;20390;-35
2023/03/27 09:26:19;;;;;;;3.58;1.20;;;10.00;99.90;;;;;;5075636;28;20024;-34
2023/03/27 09:28:50;;;;;;;5.15;1.25;;;10.40;99.90;;;;;;5057452;28;20040;-34
2023/03/27 09:31:42;;;;;;;5.10;1.30;;;10.70;99.90;;;;;;5062911;28;20040;-35
2023/03/27 09:34:14;;;;;;;4.28;1.27;;;11.10;99.90;;;;;;5068132;28;20043;-34
2023/03/27 09:36:40;;;;;;;6.32;1.48;;;11.20;99.90;;;;;;5061047;28;20450;-35
2023/03/27 09:39:11;;;;;;;4.57;1.13;;;11.10;99.90;;;;;;5064498;28;20103;-33
2023/03/27 09:41:48;;;;;;;3.00;1.10;;;10.70;99.90;;;;;;5065784;28;20037;-34
2023/03/27 09:44:24;;;;;;;2.70;0.77;;;9.40;99.90;;;;;;5071978;28;20115;-34
2023/03/27 09:47:13;;;;;;;3.03;1.05;;;8.60;99.90;;;;;;5062351;28;20560;-39
2023/03/27 09:49:44;;;;;;;2.22;0.82;;;7.80;99.90;;;;;;5063248;28;20029;-34
2023/03/27 09:52:37;;;;;;;2.35;0.80;;;7.70;99.90;;;;;;5067445;28;20032;-34
2023/03/27 09:55:23;;;;;;;0.68;0.50;;;8.00;99.90;;;;;;5067615;28;20128;-34
2023/03/27 09:57:51;;;;;;;2.88;0.68;;;8.60;99.90;;;;;;5053907;28;20047;-35
2023/03/27 10:00:29;;;;;;;1.23;0.60;;;8.90;99.90;;;;;;5067232;28;20111;-35
2023/03/27 10:03:04;;;;;;;2.33;0.50;;;9.00;99.90;;;;;;5077577;28;20053;-34
2023/03/27 10:05:31;;;;;;;3.17;1.02;;;9.20;99.90;;;;;;5075523;28;20039;-34
2023/03/27 10:07:59;;;;;;;2.92;0.70;;;9.50;99.90;;;;;;5066052;28;20040;-34
2023/03/27 10:10:26;;;;;;;2.72;0.68;;;9.60;99.90;;;;;;5078470;28;20240;-34
2023/03/27 10:12:58;;;;;;;1.30;0.55;;;10.00;99.90;;;;;;5064358;28;20080;-34
2023/03/27 10:15:33;;;;;;;3.28;0.82;;;10.50;99.90;;;;;;5080605;28;20426;-35
2023/03/27 10:18:03;;;;;;;2.97;0.82;;;11.10;99.90;;;;;;5071625;28;20063;-35
2023/03/27 10:20:30;;;;;;;3.35;0.80;;;11.50;99.90;;;;;;5063597;28;20086;-36
2023/03/27 10:23:00;;;;;;;2.17;0.80;;;11.70;99.90;;;;;;5063857;28;20091;-34
2023/03/27 10:25:33;;;;;;;3.58;1.00;;;12.00;99.90;;;;;;5057923;28;20079;-34
2023/03/27 10:28:15;;;;;;;2.45;1.00;;;11.80;99.90;;;;;;5065557;28;20106;-34
2023/03/27 10:30:41;;;;;;;4.18;0.90;;;11.80;99.90;;;;;;5065243;28;20449;-34
2023/03/27 10:33:06;;;;;;;4.00;1.17;;;12.10;99.90;;;;;;5064042;28;20430;-34
2023/03/27 10:35:36;;;;;;;4.68;1.00;;;11.90;99.90;;;;;;5054372;28;20090;-35
2023/03/27 10:38:09;;;;;;;3.97;1.10;;;11.80;99.90;;;;;;5060442;28;20051;-35
2023/03/27 10:40:38;;;;;;;4.75;1.05;;;12.00;99.90;;;;;;5056926;28;20678;-36
2023/03/27 10:43:09;;;;;;;2.83;1.20;;;12.10;99.90;;;;;;5070584;28;20033;-35
2023/03/27 10:45:46;;;;;;;3.15;1.10;;;12.00;99.90;;;;;;5058345;28;20095;-35
2023/03/27 10:48:29;;;;;;;3.67;1.08;;;12.50;99.90;;;;;;5064112;28;20521;-34
2023/03/27 10:51:00;;;;;;;4.63;1.10;;;12.80;99.90;;;;;;5062860;28;20055;-35
2023/03/27 10:53:42;;;;;;;5.30;1.23;;;13.10;99.90;;;;;;5064332;28;20037;-35
2023/03/27 10:56:22;;;;;;;3.42;0.80;;;13.50;83.40;;;;;;5058874;28;20071;-35
2023/03/27 10:59:07;;;;;;;4.80;1.00;;;13.50;73.20;;;;;;5058283;28;20037;-35
2023/03/27 11:01:41;;;;;;;3.40;0.98;;;13.40;93.70;;;;;;5063461;28;20509;-35
2023/03/27 11:04:09;;;;;;;;;;;13.20;91.90;;;;;;5058541;28;20433;-35
2023/03/27 11:06:40;;;;;;;3.45;0.90;;;13.50;72.30;;;;;;5060594;28;20314;-35
2023/03/27 11:09:22;;;;;;;2.28;1.00;;;13.90;86.20;;;;;;5062841;28;20036;-35
2023/03/27 11:12:13;;;;;;;3.73;1.07;;;14.60;76.60;;;;;;5059599;28;20048;-36
2023/03/27 11:14:50;;;;;;;4.63;1.17;;;15.30;65.50;;;;;;5056426;28;20114;-35
2023/03/27 11:17:22;;;;;;;4.45;1.02;;;14.60;66.80;;;;;;5060328;28;20517;-35
2023/03/27 11:19:57;;;;;;;1.60;0.75;;;14.60;67.60;;;;;;5061716;28;20384;-35
2023/03/27 11:22:36;;;;;;;2.67;1.17;;;14.40;67.80;;;;;;5053171;28;20102;-35
2023/03/27 11:25:40;;;;;;;3.45;1.10;;;13.80;65.50;;;;;;5063378;28;20528;-35
2023/03/27 11:28:19;;;;;;;4.75;1.30;;;13.10;63.90;;;;;;5023764;28;20087;-35
2023/03/27 11:31:13;;;;;;;7.55;1.17;;;12.90;65.10;;;;;;5034345;28;20048;-35
2023/03/27 11:34:14;;;;;;;2.30;1.00;;;13.00;64.60;;;;;;5049720;28;20055;-36
2023/03/27 11:36:47;;;;;;;2.05;0.70;;;13.90;65.70;;;;;;5065699;28;20567;-37
2023/03/27 11:39:36;;;;;;;4.20;1.02;;;14.30;62.10;;;;;;5062830;28;20056;-36
2023/03/27 11:42:25;;;;;;;3.53;0.90;;;14.20;57.70;;;;;;5062646;28;20048;-35
2023/03/27 11:44:51;;;;;;;2.95;1.05;;;14.20;59.70;;;;;;5061509;28;20043;-34
2023/03/27 11:47:26;;;;;;;2.90;1.30;;;14.10;63.30;;;;;;5067518;28;20486;-33
2023/03/27 11:49:55;;;;;;;2.15;0.82;;;13.60;64.30;;;;;;5060672;28;20041;-34
2023/03/27 11:52:49;;;;;;;1.58;0.80;;;13.60;64.80;;;;;;5066673;28;20395;-34
2023/03/27 11:55:23;;;;;;;2.78;1.00;;;13.10;61.40;;;;;;5065931;28;20031;-34
2023/03/27 11:57:49;;;;;;;1.80;0.70;;;13.00;65.60;;;;;;5067631;28;20041;-34
2023/03/27 12:00:24;;;;;;;1.98;0.68;;;13.60;65.00;;;;;;5065339;28;20520;-34
2023/03/27 12:03:18;;;;;;;1.13;0.90;;;13.90;61.70;;;;;;5071609;28;20036;-35
2023/03/27 12:06:06;;;;;;;1.48;0.85;;;13.10;62.70;;;;;;5062340;28;20029;-34
2023/03/27 12:08:53;;;;;;;2.83;0.70;;;12.10;66.00;;;;;;5092383;28;20088;-34
2023/03/27 12:11:21;;;;;;;1.50;0.40;;;11.10;68.20;;;;;;5072643;28;20205;-34
2023/03/27 12:14:13;;;;;;;2.20;0.60;;;11.00;90.40;;;;;;5077442;28;20036;-34
2023/03/27 12:16:55;;;;;;;1.35;0.50;;;11.30;99.00;;;;;;5075496;28;20498;-35
2023/03/27 12:19:48;;;;;;;0.95;0.70;;;12.20;99.90;;;;;;5070285;28;20084;-35
2023/03/27 12:22:17;;;;;;;3.50;0.73;;;13.00;83.60;;;;;;5062040;28;20106;-35
2023/03/27 12:25:17;;;;;;;1.80;0.55;;;14.20;80.80;;;;;;5065557;28;20035;-36
2023/03/27 12:28:11;;;;;;;5.80;1.00;;;15.00;67.10;;;;;;5058821;28;20106;-36
2023/03/27 12:31:04;;;;;;;2.22;0.88;;;16.00;64.50;;;;;;5056250;28;20045;-36
2023/03/27 12:33:48;;;;;;;2.25;0.70;;;17.10;60.10;;;;;;5058586;28;20037;-36
2023/03/27 12:36:19;;;;;;;6.78;1.00;;;18.10;58.50;;;;;;5061131;28;20502;-36
2023/03/27 12:38:46;;;;;;;1.90;0.80;;;17.70;54.70;;;;;;5062765;28;20040;-35
2023/03/27 12:41:20;;;;;;;2.35;1.00;;;16.60;55.70;;;;;;5072651;28;20036;-35
2023/03/27 12:43:47;;;;;;;3.83;1.10;;;15.40;56.90;;;;;;5067582;28;20058;-35
2023/03/27 12:46:22;;;;;;;2.22;0.73;;;13.90;61.10;;;;;;5064665;28;20109;-35
2023/03/27 12:49:20;;;;;;;2.17;0.85;;;12.40;63.40;;;;;;5066489;28;20068;-35
2023/03/27 12:51:52;;;;;;;3.25;0.88;;;10.90;68.40;;;;;;5048750;28;20139;-35
2023/03/27 12:54:18;;;;;;;6.20;1.10;;;10.30;89.10;;;;;;5061865;28;20115;-36
2023/03/27 12:57:03;;;;;;;2.78;0.90;;;9.80;99.90;;;;;;5073970;28;20076;-36
2023/03/27 12:59:38;;;;;;;3.72;0.90;;;10.50;99.90;;;;;;5066902;28;20037;-36
2023/03/27 13:02:14;;;;;;;2.88;1.00;;;11.90;99.90;;;;;;5064839;28;20464;-37
2023/03/27 13:05:08;;;;;;;4.72;1.05;;;13.40;99.90;;;;;;5069688;28;20078;-37
2023/03/27 13:08:07;;;;;;;4.00;1.10;;;14.50;73.70;;;;;;5060693;28;20029;-37
2023/03/27 13:10:57;;;;;;;3.33;1.10;;;14.60;72.50;;;;;;5065476;28;20044;-36
2023/03/27 13:13:46;;;;;;;4.60;1.05;;;15.50;69.30;;;;;;5063136;28;20031;-36
2023/03/27 13:16:27;;;;;;;3.80;1.00;;;15.80;63.00;;;;;;5067663;28;20036;-36
2023/03/27 13:19:02;;;;;;;4.25;1.38;;;15.80;60.40;;;;;;5066237;28;20070;-36
2023/03/27 13:22:05;;;;;;;4.95;1.35;;;15.20;62.20;;;;;;5065037;28;20045;-37
2023/03/27 13:24:49;;;;;;;2.67;1.00;;;15.80;61.60;;;;;;5060508;28;20033;-37
2023/03/27 13:27:39;;;;;;;4.22;1.13;;;16.20;55.50;;;;;;5073912;28;20481;-36